N148AW MDJB-MDLR
Flight info
| Callsign | N148AW |
|---|---|
| Flight time | 0h 33m |
| Altitude | 800 |
| Route | VFR |
| Aircraft | B407/L-SFG/C |
Departure
| Time | 2026-05-03 23:19 |
|---|---|
| Airport | La Isabela International Airport (MDJB) |
Arrival
| Time | 2026-05-03 23:53 |
|---|---|
| Airport | Casa De Campo International Airport (MDLR) |
| Time | Latitude | Longitude | Altitude | Speed | Heading |
|---|---|---|---|---|---|
| 2026-05-03 23:17 | 18.57884 | -69.98263 | 98 ft | 0 kts | 276° |
| 2026-05-03 23:18 | 18.57888 | -69.98299 | 118 ft | 13 kts | 274° |
| 2026-05-03 23:19 | 18.57890 | -69.98323 | 117 ft | 0 kts | 10° |
| 2026-05-03 23:19 | 18.58023 | -69.98305 | 209 ft | 54 kts | 5° |
| 2026-05-03 23:19 | 18.58428 | -69.98147 | 648 ft | 68 kts | 54° |
| 2026-05-03 23:19 | 18.58297 | -69.97760 | 903 ft | 87 kts | 173° |
| 2026-05-03 23:20 | 18.57629 | -69.97878 | 873 ft | 107 kts | 187° |
| 2026-05-03 23:20 | 18.56912 | -69.98093 | 826 ft | 107 kts | 175° |
| 2026-05-03 23:20 | 18.56217 | -69.97751 | 746 ft | 110 kts | 136° |
| 2026-05-03 23:20 | 18.55758 | -69.97333 | 898 ft | 77 kts | 138° |
| 2026-05-03 23:21 | 18.55310 | -69.96924 | 772 ft | 88 kts | 139° |
| 2026-05-03 23:21 | 18.55073 | -69.96311 | 787 ft | 99 kts | 96° |
| 2026-05-03 23:21 | 18.55311 | -69.95614 | 792 ft | 106 kts | 61° |
| 2026-05-03 23:21 | 18.55769 | -69.94988 | 788 ft | 108 kts | 56° |
| 2026-05-03 23:22 | 18.56708 | -69.93713 | 816 ft | 110 kts | 63° |
| 2026-05-03 23:22 | 18.57010 | -69.92970 | 817 ft | 114 kts | 77° |
| 2026-05-03 23:22 | 18.57197 | -69.92138 | 820 ft | 119 kts | 81° |
| 2026-05-03 23:23 | 18.57356 | -69.91269 | 813 ft | 122 kts | 82° |
| 2026-05-03 23:23 | 18.57411 | -69.90391 | 801 ft | 119 kts | 106° |
| 2026-05-03 23:23 | 18.57009 | -69.89661 | 814 ft | 115 kts | 126° |
| 2026-05-03 23:23 | 18.56531 | -69.88992 | 817 ft | 114 kts | 128° |
| 2026-05-03 23:24 | 18.56015 | -69.88356 | 818 ft | 114 kts | 134° |
| 2026-05-03 23:24 | 18.55439 | -69.87779 | 817 ft | 114 kts | 136° |
| 2026-05-03 23:24 | 18.54851 | -69.87217 | 817 ft | 114 kts | 138° |
| 2026-05-03 23:24 | 18.54259 | -69.86683 | 822 ft | 114 kts | 139° |
| 2026-05-03 23:25 | 18.53646 | -69.86130 | 826 ft | 115 kts | 139° |
| 2026-05-03 23:25 | 18.53035 | -69.85600 | 822 ft | 116 kts | 142° |
| 2026-05-03 23:25 | 18.52403 | -69.85083 | 826 ft | 115 kts | 143° |
| 2026-05-03 23:25 | 18.51774 | -69.84566 | 821 ft | 114 kts | 143° |
| 2026-05-03 23:26 | 18.51143 | -69.84064 | 827 ft | 114 kts | 144° |
| 2026-05-03 23:26 | 18.50431 | -69.83683 | 822 ft | 117 kts | 160° |
| 2026-05-03 23:26 | 18.49644 | -69.83463 | 829 ft | 117 kts | 163° |
| 2026-05-03 23:26 | 18.48850 | -69.83265 | 823 ft | 117 kts | 163° |
| 2026-05-03 23:27 | 18.48062 | -69.83084 | 818 ft | 115 kts | 165° |
| 2026-05-03 23:27 | 18.47280 | -69.82970 | 812 ft | 112 kts | 169° |
| 2026-05-03 23:27 | 18.46551 | -69.82712 | 821 ft | 114 kts | 141° |
| 2026-05-03 23:27 | 18.46146 | -69.82000 | 820 ft | 116 kts | 109° |
| 2026-05-03 23:28 | 18.45962 | -69.81161 | 824 ft | 118 kts | 103° |
| 2026-05-03 23:28 | 18.45792 | -69.80332 | 810 ft | 116 kts | 100° |
| 2026-05-03 23:28 | 18.45709 | -69.79492 | 814 ft | 113 kts | 94° |
| 2026-05-03 23:28 | 18.45740 | -69.78670 | 825 ft | 116 kts | 89° |
| 2026-05-03 23:29 | 18.45807 | -69.77819 | 827 ft | 118 kts | 87° |
| 2026-05-03 23:29 | 18.45894 | -69.76946 | 818 ft | 121 kts | 85° |
| 2026-05-03 23:29 | 18.45977 | -69.76060 | 823 ft | 121 kts | 86° |
| 2026-05-03 23:29 | 18.46021 | -69.75180 | 819 ft | 119 kts | 92° |
| 2026-05-03 23:30 | 18.45965 | -69.74314 | 817 ft | 119 kts | 97° |
| 2026-05-03 23:30 | 18.45829 | -69.73465 | 812 ft | 116 kts | 103° |
| 2026-05-03 23:30 | 18.45642 | -69.72653 | 831 ft | 113 kts | 104° |
| 2026-05-03 23:30 | 18.45458 | -69.71829 | 835 ft | 119 kts | 101° |
| 2026-05-03 23:31 | 18.45322 | -69.70969 | 830 ft | 122 kts | 99° |
| 2026-05-03 23:31 | 18.45205 | -69.70092 | 836 ft | 120 kts | 97° |
| 2026-05-03 23:31 | 18.45125 | -69.69212 | 834 ft | 121 kts | 95° |
| 2026-05-03 23:31 | 18.45071 | -69.68326 | 829 ft | 120 kts | 95° |
| 2026-05-03 23:32 | 18.45015 | -69.67449 | 831 ft | 119 kts | 95° |
| 2026-05-03 23:32 | 18.44954 | -69.66571 | 842 ft | 122 kts | 95° |
| 2026-05-03 23:32 | 18.44879 | -69.65680 | 825 ft | 120 kts | 96° |
| 2026-05-03 23:32 | 18.44807 | -69.64825 | 846 ft | 117 kts | 96° |
| 2026-05-03 23:33 | 18.44765 | -69.63944 | 837 ft | 123 kts | 89° |
| 2026-05-03 23:33 | 18.44963 | -69.63074 | 841 ft | 124 kts | 69° |
| 2026-05-03 23:33 | 18.45314 | -69.62242 | 834 ft | 123 kts | 72° |
| 2026-05-03 23:33 | 18.45483 | -69.61367 | 850 ft | 123 kts | 88° |
| 2026-05-03 23:34 | 18.45446 | -69.60450 | 852 ft | 128 kts | 97° |
| 2026-05-03 23:34 | 18.45124 | -69.59594 | 840 ft | 126 kts | 123° |
| 2026-05-03 23:34 | 18.44585 | -69.58885 | 843 ft | 125 kts | 128° |
| 2026-05-03 23:34 | 18.44035 | -69.58184 | 849 ft | 124 kts | 127° |
| 2026-05-03 23:35 | 18.43533 | -69.57430 | 854 ft | 126 kts | 118° |
| 2026-05-03 23:35 | 18.43233 | -69.56554 | 839 ft | 128 kts | 103° |
| 2026-05-03 23:35 | 18.43049 | -69.55640 | 843 ft | 128 kts | 101° |
| 2026-05-03 23:35 | 18.42898 | -69.54726 | 853 ft | 127 kts | 100° |
| 2026-05-03 23:36 | 18.42742 | -69.53793 | 854 ft | 129 kts | 100° |
| 2026-05-03 23:36 | 18.42593 | -69.52869 | 842 ft | 129 kts | 98° |
| 2026-05-03 23:36 | 18.42487 | -69.51934 | 860 ft | 131 kts | 95° |
| 2026-05-03 23:36 | 18.42425 | -69.50957 | 846 ft | 134 kts | 90° |
| 2026-05-03 23:37 | 18.42415 | -69.50062 | 842 ft | 129 kts | 90° |
| 2026-05-03 23:37 | 18.42421 | -69.49110 | 865 ft | 132 kts | 90° |
| 2026-05-03 23:37 | 18.42434 | -69.48141 | 847 ft | 131 kts | 90° |
| 2026-05-03 23:37 | 18.42451 | -69.47184 | 846 ft | 131 kts | 89° |
| 2026-05-03 23:38 | 18.42466 | -69.46230 | 845 ft | 129 kts | 89° |
| 2026-05-03 23:38 | 18.42479 | -69.45283 | 851 ft | 130 kts | 89° |
| 2026-05-03 23:38 | 18.42518 | -69.44334 | 845 ft | 128 kts | 88° |
| 2026-05-03 23:38 | 18.42561 | -69.43409 | 841 ft | 125 kts | 87° |
| 2026-05-03 23:39 | 18.42611 | -69.42499 | 844 ft | 125 kts | 87° |
| 2026-05-03 23:39 | 18.42675 | -69.41585 | 851 ft | 125 kts | 87° |
| 2026-05-03 23:39 | 18.42737 | -69.40685 | 847 ft | 125 kts | 87° |
| 2026-05-03 23:39 | 18.42806 | -69.39786 | 845 ft | 122 kts | 87° |
| 2026-05-03 23:40 | 18.42874 | -69.38898 | 858 ft | 123 kts | 88° |
| 2026-05-03 23:40 | 18.42923 | -69.37997 | 843 ft | 121 kts | 88° |
| 2026-05-03 23:40 | 18.42953 | -69.37122 | 863 ft | 120 kts | 89° |
| 2026-05-03 23:40 | 18.42970 | -69.36233 | 852 ft | 122 kts | 90° |
| 2026-05-03 23:41 | 18.43077 | -69.35350 | 860 ft | 123 kts | 79° |
| 2026-05-03 23:41 | 18.43297 | -69.34463 | 865 ft | 127 kts | 77° |
| 2026-05-03 23:41 | 18.43461 | -69.33868 | 854 ft | 128 kts | 76° |
| 2026-05-03 23:41 | 18.43794 | -69.32670 | 865 ft | 128 kts | 76° |
| 2026-05-03 23:42 | 18.43960 | -69.32070 | 857 ft | 130 kts | 75° |
| 2026-05-03 23:42 | 18.44177 | -69.31153 | 861 ft | 128 kts | 80° |
| 2026-05-03 23:42 | 18.44302 | -69.30226 | 866 ft | 127 kts | 84° |
| 2026-05-03 23:42 | 18.44379 | -69.29290 | 861 ft | 129 kts | 88° |
| 2026-05-03 23:43 | 18.44381 | -69.28346 | 857 ft | 128 kts | 91° |
| 2026-05-03 23:43 | 18.44354 | -69.27402 | 859 ft | 129 kts | 92° |
| 2026-05-03 23:43 | 18.44303 | -69.26467 | 862 ft | 127 kts | 94° |
| 2026-05-03 23:43 | 18.44188 | -69.25547 | 863 ft | 127 kts | 99° |
| 2026-05-03 23:44 | 18.44007 | -69.24635 | 867 ft | 127 kts | 101° |
| 2026-05-03 23:44 | 18.43844 | -69.23722 | 857 ft | 126 kts | 99° |
| 2026-05-03 23:44 | 18.43689 | -69.22831 | 849 ft | 122 kts | 100° |
| 2026-05-03 23:44 | 18.43536 | -69.21969 | 874 ft | 122 kts | 101° |
| 2026-05-03 23:45 | 18.43381 | -69.21068 | 868 ft | 127 kts | 99° |
| 2026-05-03 23:45 | 18.43157 | -69.20186 | 854 ft | 121 kts | 107° |
| 2026-05-03 23:45 | 18.42894 | -69.19351 | 862 ft | 120 kts | 108° |
| 2026-05-03 23:45 | 18.42626 | -69.18511 | 865 ft | 123 kts | 108° |
| 2026-05-03 23:46 | 18.42362 | -69.17645 | 867 ft | 125 kts | 107° |
| 2026-05-03 23:46 | 18.42130 | -69.16768 | 868 ft | 124 kts | 102° |
| 2026-05-03 23:46 | 18.42003 | -69.15864 | 872 ft | 126 kts | 96° |
| 2026-05-03 23:46 | 18.41919 | -69.14943 | 863 ft | 125 kts | 94° |
| 2026-05-03 23:47 | 18.41884 | -69.14029 | 868 ft | 125 kts | 86° |
| 2026-05-03 23:47 | 18.42059 | -69.13117 | 875 ft | 130 kts | 75° |
| 2026-05-03 23:47 | 18.42323 | -69.12217 | 871 ft | 128 kts | 74° |
| 2026-05-03 23:47 | 18.42596 | -69.11319 | 865 ft | 129 kts | 73° |
| 2026-05-03 23:48 | 18.42806 | -69.10405 | 869 ft | 129 kts | 83° |
| 2026-05-03 23:48 | 18.42861 | -69.09479 | 868 ft | 126 kts | 89° |
| 2026-05-03 23:48 | 18.42848 | -69.08551 | 875 ft | 127 kts | 91° |
| 2026-05-03 23:48 | 18.42810 | -69.07628 | 867 ft | 125 kts | 92° |
| 2026-05-03 23:49 | 18.42765 | -69.06714 | 868 ft | 124 kts | 92° |
| 2026-05-03 23:49 | 18.42631 | -69.05830 | 870 ft | 123 kts | 103° |
| 2026-05-03 23:49 | 18.42388 | -69.04962 | 866 ft | 123 kts | 105° |
| 2026-05-03 23:49 | 18.42124 | -69.04109 | 863 ft | 121 kts | 107° |
| 2026-05-03 23:50 | 18.41868 | -69.03266 | 869 ft | 122 kts | 107° |
| 2026-05-03 23:50 | 18.41622 | -69.02407 | 869 ft | 123 kts | 106° |
| 2026-05-03 23:50 | 18.41394 | -69.01546 | 863 ft | 121 kts | 105° |
| 2026-05-03 23:50 | 18.41151 | -69.00689 | 876 ft | 124 kts | 107° |
| 2026-05-03 23:51 | 18.40904 | -68.99807 | 877 ft | 127 kts | 105° |
| 2026-05-03 23:51 | 18.40643 | -68.98911 | 867 ft | 129 kts | 104° |
| 2026-05-03 23:51 | 18.40418 | -68.98005 | 874 ft | 127 kts | 100° |
| 2026-05-03 23:51 | 18.40288 | -68.97086 | 871 ft | 127 kts | 94° |
| 2026-05-03 23:52 | 18.40210 | -68.96171 | 867 ft | 124 kts | 92° |
| 2026-05-03 23:52 | 18.40174 | -68.95284 | 862 ft | 123 kts | 91° |
| 2026-05-03 23:52 | 18.40149 | -68.94397 | 873 ft | 121 kts | 88° |
| 2026-05-03 23:52 | 18.40319 | -68.93532 | 873 ft | 121 kts | 61° |
| 2026-05-03 23:53 | 18.40880 | -68.92986 | 598 ft | 98 kts | 18° |
| 2026-05-03 23:53 | 18.41399 | -68.93028 | 535 ft | 54 kts | 321° |
| 2026-05-03 23:53 | 18.41553 | -68.93203 | 246 ft | 16 kts | 298° |
| 2026-05-03 23:53 | 18.41588 | -68.93267 | 149 ft | 8 kts | 330° |
| 2026-05-03 23:54 | 18.41628 | -68.93304 | 107 ft | 9 kts | 302° |
| 2026-05-03 23:54 | 18.41657 | -68.93327 | 85 ft | 1 kts | 276° |
| 2026-05-03 23:54 | 18.41656 | -68.93328 | 81 ft | 0 kts | 276° |